Dubai, United Arab Emirates
Current Conditions -  °F | °C
As of 3:00 AM on Sunday 23 Nov 2014 (Local Time) from OMDB Reporting Station
Clear Clear  
Wind Chill: 22°   Ceiling: Unl
Heat Index: 22°   Visibility: 5mi
Dew Point: 18°   Wind: 6mph
Humidity: 78%   Direction: 140°SE
Pressure: 29.94"   Gusts: NA
Location:  25.27°N, 55.33°E
Report Text: OMDB 222300Z 14005KT 100V180 8000 NSC 22/18 Q1014 NOSIG
Loading
Personal Weather Stations






























Interactive Weather Map New forecast layout! Learn more

10-Day Weather Forecast

Advertisements
Track Severe Weather on mobile